createdAt,value
2017-10-12T00:01:22.560Z,65.60
2017-10-12T00:03:48.746Z,65.60
2017-10-12T00:06:14.950Z,65.60
2017-10-12T00:08:41.901Z,65.60
2017-10-12T00:11:08.791Z,65.60
2017-10-12T00:13:34.948Z,65.70
2017-10-12T00:16:01.195Z,65.60
2017-10-12T00:18:27.411Z,65.70
2017-10-12T00:20:53.592Z,65.70
2017-10-12T00:23:19.834Z,65.70
2017-10-12T00:25:46.044Z,65.70
2017-10-12T00:28:12.250Z,65.70
2017-10-12T00:30:38.499Z,65.70
2017-10-12T00:33:05.447Z,65.80
2017-10-12T00:35:31.592Z,65.70
2017-10-12T00:37:58.729Z,65.70
2017-10-12T00:40:24.993Z,65.70
2017-10-12T00:42:51.314Z,65.60
2017-10-12T00:45:18.423Z,66.10
2017-10-12T00:47:45.402Z,67.10
2017-10-12T00:50:12.310Z,66.00
2017-10-12T00:52:39.270Z,66.00
2017-10-12T00:55:05.496Z,66.00
2017-10-12T00:57:31.704Z,66.60
2017-10-12T00:59:57.936Z,66.30
2017-10-12T01:02:24.182Z,66.50
2017-10-12T01:04:50.464Z,66.90
2017-10-12T01:07:16.671Z,66.90
2017-10-12T01:09:42.907Z,67.10
2017-10-12T01:12:09.107Z,67.00
2017-10-12T01:14:35.291Z,67.10
2017-10-12T01:17:01.495Z,67.50
2017-10-12T01:19:27.685Z,67.20
2017-10-12T01:21:54.676Z,67.90
2017-10-12T01:24:20.913Z,67.90
2017-10-12T01:26:47.127Z,67.90
2017-10-12T01:29:13.331Z,69.00
2017-10-12T01:31:39.521Z,68.20
2017-10-12T01:34:05.804Z,68.50
2017-10-12T01:36:31.982Z,69.00
2017-10-12T01:38:58.167Z,68.70
2017-10-12T01:41:24.327Z,68.60
2017-10-12T01:43:50.491Z,68.90
2017-10-12T01:46:16.655Z,68.80
2017-10-12T01:48:55.947Z,68.90
2017-10-12T01:51:22.178Z,68.70
2017-10-12T01:53:48.407Z,69.60
2017-10-12T01:56:15.311Z,68.80
2017-10-12T01:58:41.568Z,68.80
2017-10-12T02:01:08.497Z,68.80
2017-10-12T02:03:35.411Z,69.00
2017-10-12T02:06:01.612Z,69.00
2017-10-12T02:08:27.803Z,68.70
2017-10-12T02:10:54.038Z,68.90
2017-10-12T02:13:21.056Z,69.00
2017-10-12T02:15:47.302Z,69.00
2017-10-12T02:18:14.275Z,69.20
2017-10-12T02:20:40.487Z,69.20
2017-10-12T02:23:07.443Z,68.90
2017-10-12T02:25:33.665Z,68.90
2017-10-12T02:27:59.810Z,68.90
2017-10-12T02:30:26.005Z,69.30
2017-10-12T02:32:52.176Z,69.40
2017-10-12T02:35:18.333Z,69.30
2017-10-12T02:37:44.543Z,69.40
2017-10-12T02:40:10.704Z,69.30
2017-10-12T02:42:37.629Z,69.30
2017-10-12T02:45:03.821Z,69.20
2017-10-12T02:47:30.028Z,69.50
2017-10-12T02:49:56.243Z,69.50
2017-10-12T02:52:22.426Z,69.50
2017-10-12T02:54:48.590Z,69.60
2017-10-12T02:57:14.798Z,69.60
2017-10-12T02:59:42.600Z,69.30
2017-10-12T03:02:08.903Z,69.30
2017-10-12T03:04:35.091Z,69.50
2017-10-12T03:07:01.242Z,69.10
2017-10-12T03:09:27.824Z,69.00
2017-10-12T03:11:53.982Z,69.10
2017-10-12T03:14:20.140Z,69.50
2017-10-12T03:16:47.384Z,70.00
2017-10-12T03:19:14.322Z,69.90
2017-10-12T03:21:40.479Z,69.90
2017-10-12T03:24:06.668Z,70.00
2017-10-12T03:26:32.875Z,70.00
2017-10-12T03:28:59.025Z,70.10
2017-10-12T03:31:25.274Z,70.10
2017-10-12T03:33:51.481Z,69.90
2017-10-12T03:36:17.683Z,69.90
2017-10-12T03:38:44.143Z,70.00
2017-10-12T03:41:10.465Z,69.90
2017-10-12T03:43:36.661Z,70.00
2017-10-12T03:46:02.893Z,70.10
2017-10-12T03:48:29.080Z,70.20
2017-10-12T03:50:56.025Z,69.80
2017-10-12T03:53:22.186Z,69.70
2017-10-12T03:55:48.375Z,69.90
2017-10-12T03:58:14.571Z,69.80
2017-10-12T04:00:40.742Z,69.90
2017-10-12T04:03:07.686Z,70.20
2017-10-12T04:05:34.604Z,70.20
2017-10-12T04:08:01.531Z,70.00
2017-10-12T04:10:27.684Z,69.80
2017-10-12T04:12:53.915Z,69.80
2017-10-12T04:15:20.123Z,69.90
2017-10-12T04:17:46.286Z,70.00
2017-10-12T04:20:13.204Z,69.80
2017-10-12T04:22:39.359Z,69.80
2017-10-12T04:25:05.511Z,69.70
2017-10-12T04:27:31.745Z,69.50
2017-10-12T04:29:57.917Z,69.60
2017-10-12T04:32:24.357Z,69.70
2017-10-12T04:34:50.527Z,69.70
2017-10-12T04:37:16.854Z,69.70
2017-10-12T04:39:42.986Z,69.90
2017-10-12T04:42:09.291Z,69.90
2017-10-12T04:44:35.843Z,70.00
2017-10-12T04:47:02.769Z,70.60
2017-10-12T04:49:28.927Z,70.30
2017-10-12T04:51:55.110Z,70.40
2017-10-12T04:54:21.997Z,69.80
2017-10-12T04:56:48.184Z,69.80
2017-10-12T04:59:14.364Z,69.60
2017-10-12T05:01:41.342Z,69.80
2017-10-12T05:04:07.487Z,69.80
2017-10-12T05:06:33.678Z,69.90
2017-10-12T05:08:59.819Z,70.00
2017-10-12T05:11:25.963Z,69.70
2017-10-12T05:13:52.200Z,69.80
2017-10-12T05:16:18.382Z,69.80
2017-10-12T05:18:44.538Z,69.80
2017-10-12T05:21:10.695Z,69.60
2017-10-12T05:23:36.828Z,69.60
2017-10-12T05:26:03.014Z,69.40
2017-10-12T05:28:29.214Z,69.50
2017-10-12T05:30:56.254Z,69.20
2017-10-12T05:33:22.433Z,69.20
2017-10-12T05:35:48.604Z,69.20
2017-10-12T05:38:14.813Z,69.40
2017-10-12T05:40:41.006Z,70.20
2017-10-12T05:43:08.054Z,69.50
2017-10-12T05:45:34.235Z,69.50
2017-10-12T05:48:00.477Z,69.10
2017-10-12T05:50:26.656Z,68.90
2017-10-12T05:52:52.832Z,68.80
2017-10-12T05:55:19.061Z,68.60
2017-10-12T05:57:45.290Z,68.00
2017-10-12T06:00:11.524Z,68.40
2017-10-12T06:02:37.694Z,68.80
2017-10-12T06:05:04.061Z,68.80
2017-10-12T06:07:30.307Z,68.70
2017-10-12T06:09:56.538Z,68.60
2017-10-12T06:12:22.733Z,68.90
2017-10-12T06:14:48.980Z,68.80
2017-10-12T06:17:15.153Z,68.70
2017-10-12T06:19:41.361Z,68.90
2017-10-12T06:22:07.601Z,69.00
2017-10-12T06:24:33.858Z,69.20
2017-10-12T06:27:00.021Z,69.60
2017-10-12T06:29:27.024Z,69.60
2017-10-12T06:31:53.974Z,69.60
2017-10-12T06:34:20.208Z,69.50
2017-10-12T06:36:46.480Z,69.50
2017-10-12T06:39:12.636Z,69.40
2017-10-12T06:41:38.879Z,69.30
2017-10-12T06:44:05.053Z,69.50
2017-10-12T06:46:31.257Z,69.30
2017-10-12T06:48:57.479Z,69.40
2017-10-12T06:51:23.684Z,69.90
2017-10-12T06:53:49.871Z,70.10
2017-10-12T06:56:16.083Z,70.60
2017-10-12T06:58:42.987Z,70.80
2017-10-12T07:01:09.217Z,70.80
2017-10-12T07:03:35.423Z,70.80
2017-10-12T07:06:01.672Z,70.90
2017-10-12T07:08:27.896Z,71.10
2017-10-12T07:10:54.108Z,71.00
2017-10-12T07:13:20.374Z,71.20
2017-10-12T07:15:46.543Z,71.20
2017-10-12T07:18:12.743Z,71.00
2017-10-12T07:20:38.938Z,71.40
2017-10-12T07:23:05.859Z,71.10
2017-10-12T07:25:32.763Z,71.10
2017-10-12T07:27:59.055Z,71.00
2017-10-12T07:30:25.242Z,71.10
2017-10-12T07:32:51.398Z,70.60
2017-10-12T07:35:17.606Z,70.30
2017-10-12T07:37:43.815Z,70.10
2017-10-12T07:40:10.122Z,69.70
2017-10-12T07:42:36.292Z,69.00
2017-10-12T07:45:02.488Z,68.30
2017-10-12T07:47:28.672Z,68.30
2017-10-12T07:49:54.846Z,67.80
2017-10-12T07:52:21.031Z,67.40
2017-10-12T07:54:47.948Z,67.50
2017-10-12T07:57:14.175Z,67.50
2017-10-12T07:59:41.094Z,67.20
2017-10-12T08:02:08.012Z,66.60
2017-10-12T08:04:34.208Z,66.60
2017-10-12T08:07:00.401Z,66.40
2017-10-12T08:09:26.566Z,65.30
2017-10-12T08:11:52.766Z,65.50
2017-10-12T08:14:18.987Z,65.00
2017-10-12T08:16:45.174Z,63.90
2017-10-12T08:19:11.355Z,63.20
2017-10-12T08:21:37.568Z,62.70
2017-10-12T08:24:03.730Z,62.90
2017-10-12T08:26:29.958Z,62.70
2017-10-12T08:28:56.400Z,63.00
2017-10-12T08:31:22.634Z,62.00
2017-10-12T08:33:48.798Z,61.50
2017-10-12T08:36:15.724Z,60.00
2017-10-12T08:38:42.676Z,59.60
2017-10-12T08:41:09.578Z,59.00
2017-10-12T08:43:36.491Z,58.60
2017-10-12T08:46:02.652Z,58.70
2017-10-12T08:48:28.868Z,59.10
2017-10-12T08:50:55.064Z,58.90
2017-10-12T08:53:21.995Z,58.60
2017-10-12T08:55:48.128Z,58.50
2017-10-12T08:58:14.330Z,58.60
2017-10-12T09:00:40.485Z,57.30
2017-10-12T09:03:06.682Z,56.10
2017-10-12T09:05:32.831Z,56.20
2017-10-12T09:07:59.046Z,56.70
2017-10-12T09:10:25.258Z,56.20
2017-10-12T09:12:51.461Z,54.50
2017-10-12T09:15:17.610Z,54.50
2017-10-12T09:17:43.838Z,53.00
2017-10-12T09:20:09.978Z,50.20
2017-10-12T09:22:36.194Z,51.00
2017-10-12T09:25:02.416Z,48.30
2017-10-12T09:27:28.599Z,47.20
2017-10-12T09:29:54.771Z,47.30
2017-10-12T09:32:21.762Z,48.60
2017-10-12T09:34:48.044Z,48.30
2017-10-12T09:37:14.259Z,47.70
2017-10-12T09:39:40.489Z,45.90
2017-10-12T09:42:06.714Z,45.60
2017-10-12T09:44:32.910Z,46.70
2017-10-12T09:46:59.119Z,45.40
2017-10-12T09:49:25.429Z,45.10
2017-10-12T09:51:51.580Z,45.10
2017-10-12T09:54:17.766Z,44.10
2017-10-12T09:56:43.971Z,44.70
2017-10-12T09:59:10.213Z,44.00
2017-10-12T10:01:36.422Z,41.20
2017-10-12T10:04:02.669Z,42.60
2017-10-12T10:06:28.943Z,41.50
2017-10-12T10:08:55.143Z,41.50
2017-10-12T10:11:21.419Z,42.60
2017-10-12T10:13:48.437Z,41.40
2017-10-12T10:16:14.613Z,41.30
2017-10-12T10:18:41.038Z,41.50
2017-10-12T10:21:07.199Z,40.20
2017-10-12T10:23:33.410Z,40.80
2017-10-12T10:26:00.398Z,41.40
2017-10-12T10:28:26.618Z,41.30
2017-10-12T10:30:52.829Z,40.20
2017-10-12T10:33:19.067Z,41.10
2017-10-12T10:35:45.258Z,40.70
2017-10-12T10:38:11.635Z,40.40
2017-10-12T10:40:37.888Z,41.20
2017-10-12T10:43:04.082Z,40.70
2017-10-12T10:45:30.241Z,41.40
2017-10-12T10:47:56.412Z,41.30
2017-10-12T10:50:22.663Z,41.20
2017-10-12T10:52:49.610Z,41.90
2017-10-12T10:55:15.827Z,41.70
2017-10-12T10:57:42.740Z,42.00
2017-10-12T11:00:08.966Z,42.10
2017-10-12T11:02:35.913Z,41.40
2017-10-12T11:05:02.145Z,41.30
2017-10-12T11:07:28.335Z,39.30
2017-10-12T11:09:54.551Z,39.20
2017-10-12T11:12:20.748Z,38.80
2017-10-12T11:14:47.014Z,37.90
2017-10-12T11:17:13.291Z,37.90
2017-10-12T11:19:39.561Z,38.00
2017-10-12T11:22:05.767Z,37.80
2017-10-12T11:24:32.010Z,37.50
2017-10-12T11:26:58.971Z,38.00
2017-10-12T11:29:25.183Z,37.90
2017-10-12T11:31:51.371Z,38.60
2017-10-12T11:34:18.311Z,37.40
2017-10-12T11:36:46.407Z,37.80
2017-10-12T11:39:12.640Z,37.70
2017-10-12T11:41:38.791Z,36.00
2017-10-12T11:44:05.739Z,35.70
2017-10-12T11:46:31.930Z,35.70
2017-10-12T11:48:58.832Z,35.60
2017-10-12T11:51:25.078Z,36.40
2017-10-12T11:53:52.018Z,36.60
2017-10-12T11:56:18.175Z,36.40
2017-10-12T11:58:44.408Z,36.40
2017-10-12T12:01:10.626Z,36.50
2017-10-12T12:03:36.840Z,35.10
2017-10-12T12:06:03.012Z,35.90
2017-10-12T12:08:29.238Z,35.50
2017-10-12T12:10:55.466Z,36.20
2017-10-12T12:13:21.638Z,36.20
2017-10-12T12:15:47.829Z,36.60
2017-10-12T12:18:14.227Z,36.10
2017-10-12T12:20:40.475Z,36.80
2017-10-12T12:23:06.735Z,37.10
2017-10-12T12:25:32.931Z,37.20
2017-10-12T12:27:59.160Z,37.20
2017-10-12T12:30:25.394Z,36.50
2017-10-12T12:32:51.726Z,37.30
2017-10-12T12:35:17.955Z,37.20
2017-10-12T12:37:44.151Z,37.10
2017-10-12T12:40:11.062Z,37.40
2017-10-12T12:42:37.229Z,37.40
2017-10-12T12:45:03.430Z,37.50
2017-10-12T12:47:29.624Z,37.30
2017-10-12T12:49:55.856Z,37.10
2017-10-12T12:52:22.055Z,35.50
2017-10-12T12:54:48.271Z,35.80
2017-10-12T12:57:14.459Z,36.20
2017-10-12T12:59:40.672Z,36.10
2017-10-12T13:02:07.632Z,37.20
2017-10-12T13:04:33.807Z,37.10
2017-10-12T13:07:00.024Z,37.30
2017-10-12T13:09:26.981Z,36.50
2017-10-12T13:11:53.190Z,36.50
2017-10-12T13:14:19.442Z,36.90
2017-10-12T13:16:45.623Z,37.90
2017-10-12T13:19:11.914Z,37.80
2017-10-12T13:21:38.718Z,38.00
2017-10-12T13:24:04.900Z,37.80
2017-10-12T13:26:31.131Z,37.80
2017-10-12T13:28:57.327Z,37.70
2017-10-12T13:31:24.242Z,38.40
2017-10-12T13:33:50.428Z,38.80
2017-10-12T13:36:16.661Z,38.30
2017-10-12T13:38:43.024Z,38.30
2017-10-12T13:41:09.178Z,38.20
2017-10-12T13:43:35.383Z,38.50
2017-10-12T13:46:01.559Z,38.60
2017-10-12T13:48:27.762Z,38.40
2017-10-12T13:50:53.943Z,39.20
2017-10-12T13:53:20.137Z,39.20
2017-10-12T13:55:47.064Z,39.50
2017-10-12T13:58:13.418Z,39.50
2017-10-12T14:00:39.617Z,39.70
2017-10-12T14:03:05.808Z,38.90
2017-10-12T14:05:32.029Z,38.90
2017-10-12T14:07:58.238Z,39.10
2017-10-12T14:10:25.223Z,39.70
2017-10-12T14:12:51.474Z,39.60
2017-10-12T14:15:18.449Z,39.10
2017-10-12T14:17:44.628Z,39.60
2017-10-12T14:20:10.920Z,39.80
2017-10-12T14:22:37.884Z,39.40
2017-10-12T14:25:04.107Z,39.40
2017-10-12T14:27:30.305Z,39.80
2017-10-12T14:29:56.548Z,39.20
2017-10-12T14:32:22.743Z,39.10
2017-10-12T14:34:48.922Z,39.00
2017-10-12T14:37:15.106Z,39.70
2017-10-12T14:39:41.290Z,39.30
2017-10-12T14:42:07.526Z,40.40
2017-10-12T14:44:33.685Z,38.70
2017-10-12T14:46:59.908Z,39.40
2017-10-12T14:49:26.103Z,40.00
2017-10-12T14:51:52.354Z,39.90
2017-10-12T14:54:18.564Z,40.00
2017-10-12T14:56:44.776Z,40.20
2017-10-12T14:59:10.987Z,40.60
2017-10-12T15:01:37.201Z,40.60
2017-10-12T15:04:03.430Z,40.60
2017-10-12T15:06:29.622Z,39.30
2017-10-12T15:08:55.842Z,38.90
2017-10-12T15:11:22.043Z,39.30
2017-10-12T15:13:48.243Z,38.50
2017-10-12T15:16:14.434Z,37.80
2017-10-12T15:18:40.684Z,37.90
2017-10-12T15:21:06.931Z,38.10
2017-10-12T15:23:33.221Z,38.50
2017-10-12T15:25:59.397Z,38.30
2017-10-12T15:28:25.603Z,38.60
2017-10-12T15:30:51.855Z,39.20
2017-10-12T15:33:18.122Z,39.70
2017-10-12T15:35:45.028Z,38.70
2017-10-12T15:38:11.216Z,38.70
2017-10-12T15:40:37.412Z,39.30
2017-10-12T15:43:03.591Z,39.00
2017-10-12T15:45:29.871Z,39.70
2017-10-12T15:47:56.113Z,38.90
2017-10-12T15:50:22.271Z,39.80
2017-10-12T15:52:48.446Z,38.70
2017-10-12T15:55:14.642Z,39.30
2017-10-12T15:57:40.828Z,39.60
2017-10-12T16:00:07.842Z,40.00
2017-10-12T16:02:33.981Z,39.80
2017-10-12T16:05:00.160Z,39.90
2017-10-12T16:07:26.335Z,40.00
2017-10-12T16:09:52.512Z,40.20
2017-10-12T16:12:18.703Z,40.20
2017-10-12T16:14:44.937Z,40.20
2017-10-12T16:17:11.146Z,40.70
2017-10-12T16:19:37.357Z,40.10
2017-10-12T16:22:05.466Z,41.80
2017-10-12T16:24:31.707Z,42.00
2017-10-12T16:26:57.877Z,42.20
2017-10-12T16:29:24.123Z,43.90
2017-10-12T16:31:50.349Z,44.90
2017-10-12T16:34:16.577Z,45.50
2017-10-12T16:36:42.793Z,45.70
2017-10-12T16:39:09.063Z,46.20
2017-10-12T16:41:36.520Z,47.10
2017-10-12T16:44:02.736Z,48.10
2017-10-12T16:46:29.000Z,48.00
2017-10-12T16:48:55.181Z,47.20
2017-10-12T16:51:21.430Z,46.00
2017-10-12T16:53:47.620Z,47.50
2017-10-12T16:56:13.968Z,48.50
2017-10-12T16:58:40.195Z,48.80
2017-10-12T17:01:06.438Z,48.80
2017-10-12T17:03:32.662Z,48.70
2017-10-12T17:05:58.895Z,48.70
2017-10-12T17:08:25.841Z,48.50
2017-10-12T17:10:52.090Z,48.50
2017-10-12T17:13:18.293Z,48.40
2017-10-12T17:15:44.500Z,48.90
2017-10-12T17:18:10.900Z,50.10
2017-10-12T17:20:37.258Z,49.60
2017-10-12T17:23:03.561Z,48.80
2017-10-12T17:25:29.918Z,50.40
2017-10-12T17:27:56.868Z,51.20
2017-10-12T17:30:24.160Z,51.10
2017-10-12T17:32:51.184Z,51.40
2017-10-12T17:35:17.413Z,51.50
2017-10-12T17:37:43.623Z,51.30
2017-10-12T17:40:09.864Z,51.10
2017-10-12T17:42:36.107Z,51.20
2017-10-12T17:45:02.546Z,51.10
2017-10-12T17:47:28.754Z,51.60
2017-10-12T17:49:54.984Z,52.50
2017-10-12T17:52:21.184Z,52.80
2017-10-12T17:54:47.421Z,52.20
2017-10-12T17:57:13.801Z,52.30
2017-10-12T17:59:40.064Z,52.80
2017-10-12T18:02:06.244Z,53.40
2017-10-12T18:04:47.365Z,53.40
2017-10-12T18:06:58.701Z,53.90
2017-10-12T18:09:24.992Z,54.20
2017-10-12T18:14:17.815Z,55.00
2017-10-12T18:16:44.244Z,55.00
2017-10-12T18:19:10.451Z,55.00
2017-10-12T18:21:36.702Z,55.60
2017-10-12T18:24:02.929Z,56.20
2017-10-12T18:26:29.881Z,55.90
2017-10-12T18:28:56.143Z,55.90
2017-10-12T18:31:22.351Z,55.90
2017-10-12T18:33:48.546Z,55.70
2017-10-12T18:36:14.854Z,55.80
2017-10-12T18:38:41.169Z,55.60
2017-10-12T18:41:07.359Z,55.80
2017-10-12T18:43:33.550Z,55.80
2017-10-12T18:45:59.705Z,56.10
2017-10-12T18:48:25.901Z,56.00
2017-10-12T18:50:52.109Z,56.00
2017-10-12T18:53:18.775Z,56.30
2017-10-12T18:55:44.977Z,56.30
2017-10-12T18:58:11.455Z,56.50
2017-10-12T19:00:38.488Z,57.10
2017-10-12T19:03:05.535Z,57.10
2017-10-12T19:05:31.686Z,57.00
2017-10-12T19:07:57.895Z,57.00
2017-10-12T19:10:24.093Z,57.00
2017-10-12T19:12:50.661Z,57.00
2017-10-12T19:15:16.888Z,57.00
2017-10-12T19:17:43.072Z,57.10
2017-10-12T19:20:09.381Z,57.90
2017-10-12T19:22:35.624Z,57.10
2017-10-12T19:25:01.958Z,57.10
2017-10-12T19:27:28.219Z,57.20
2017-10-12T19:29:54.457Z,57.10
2017-10-12T19:32:20.687Z,57.10
2017-10-12T19:34:46.943Z,56.90
2017-10-12T19:37:13.167Z,57.10
2017-10-12T19:39:39.393Z,57.10
2017-10-12T19:42:05.560Z,57.10
2017-10-12T19:44:31.806Z,57.10
2017-10-12T19:46:57.979Z,57.00
2017-10-12T19:49:24.232Z,57.00
2017-10-12T19:51:51.281Z,57.10
2017-10-12T19:54:17.414Z,57.10
2017-10-12T19:56:43.600Z,57.50
2017-10-12T19:59:09.785Z,57.70
2017-10-12T20:01:36.579Z,58.00
2017-10-12T20:04:03.491Z,58.30
2017-10-12T20:06:29.734Z,58.30
2017-10-12T20:08:55.952Z,58.70
2017-10-12T20:11:22.172Z,58.80
2017-10-12T20:18:40.952Z,59.20
2017-10-12T20:21:07.125Z,59.20
2017-10-12T20:23:33.359Z,59.30
2017-10-12T20:25:59.611Z,59.70
2017-10-12T20:28:25.833Z,59.50
2017-10-12T20:30:52.040Z,59.70
2017-10-12T20:33:18.275Z,59.60
2017-10-12T20:35:46.033Z,59.90
2017-10-12T20:38:12.315Z,59.90
2017-10-12T20:40:38.529Z,60.10
2017-10-12T20:43:04.833Z,60.20
2017-10-12T20:45:31.223Z,60.10
2017-10-12T20:47:57.451Z,60.40
2017-10-12T20:50:23.674Z,60.30
2017-10-12T20:52:49.908Z,60.40
2017-10-12T20:55:16.371Z,60.80
2017-10-12T20:57:42.596Z,61.10
2017-10-12T21:00:08.920Z,61.60
2017-10-12T21:02:50.181Z,61.50
2017-10-12T21:05:01.462Z,61.50
2017-10-12T21:07:27.830Z,61.50
2017-10-12T21:09:54.202Z,62.40
2017-10-12T21:12:20.743Z,62.70
2017-10-12T21:14:48.376Z,62.60
2017-10-12T21:17:14.696Z,62.70
2017-10-12T21:19:42.406Z,62.90
2017-10-12T21:22:08.594Z,63.40
2017-10-12T21:24:34.819Z,63.50
2017-10-12T21:27:01.983Z,63.80
2017-10-12T21:29:28.172Z,64.20
2017-10-12T21:31:54.353Z,64.20
2017-10-12T21:34:20.607Z,64.80
2017-10-12T21:36:46.783Z,65.90
2017-10-12T21:39:12.966Z,65.60
2017-10-12T21:41:39.240Z,65.60
2017-10-12T21:44:05.408Z,65.60
2017-10-12T21:46:31.607Z,64.80
2017-10-12T21:48:57.772Z,65.10
2017-10-12T21:51:23.939Z,65.50
2017-10-12T21:53:50.891Z,65.40
2017-10-12T21:56:17.067Z,65.40
2017-10-12T21:58:43.304Z,65.40
2017-10-12T22:01:10.550Z,65.40
2017-10-12T22:03:36.765Z,65.30
2017-10-12T22:06:03.735Z,65.50
2017-10-12T22:08:29.879Z,65.50
2017-10-12T22:10:56.108Z,65.70
2017-10-12T22:13:22.299Z,66.20
2017-10-12T22:15:48.502Z,66.20
2017-10-12T22:18:14.682Z,65.70
2017-10-12T22:20:40.876Z,65.70
2017-10-12T22:23:07.055Z,66.00
2017-10-12T22:25:33.264Z,65.80
2017-10-12T22:27:59.517Z,66.10
2017-10-12T22:30:25.715Z,65.30
2017-10-12T22:32:52.749Z,65.50
2017-10-12T22:35:19.213Z,65.40
2017-10-12T22:37:45.564Z,66.30
2017-10-12T22:40:11.827Z,67.00
2017-10-12T22:42:38.076Z,66.80
2017-10-12T22:45:04.317Z,67.10
2017-10-12T22:47:31.523Z,66.60
2017-10-12T22:49:57.767Z,67.10
2017-10-12T22:52:24.707Z,67.90
2017-10-12T22:54:51.688Z,66.30
2017-10-12T22:57:17.909Z,66.30
2017-10-12T22:59:44.149Z,66.80
2017-10-12T23:02:10.434Z,66.60
2017-10-12T23:04:36.601Z,66.50
2017-10-12T23:07:03.609Z,66.80
2017-10-12T23:09:29.787Z,66.80
2017-10-12T23:11:55.979Z,67.00
2017-10-12T23:14:22.188Z,68.00
2017-10-12T23:16:48.378Z,67.60
2017-10-12T23:19:15.299Z,67.50
2017-10-12T23:21:42.242Z,67.50
2017-10-12T23:24:08.395Z,67.50
2017-10-12T23:26:34.687Z,67.30
2017-10-12T23:29:00.885Z,67.70
2017-10-12T23:31:27.063Z,67.60
2017-10-12T23:33:53.259Z,67.90
2017-10-12T23:36:19.452Z,68.00
2017-10-12T23:38:45.666Z,68.30
2017-10-12T23:41:11.856Z,68.40
2017-10-12T23:43:38.095Z,67.90
2017-10-12T23:46:04.264Z,68.70
2017-10-12T23:48:30.435Z,67.60
2017-10-12T23:50:56.579Z,68.00
2017-10-12T23:53:23.513Z,68.50
2017-10-12T23:55:50.456Z,68.60
2017-10-12T23:58:16.767Z,68.60
